Time;durP1;ratioP1;P1;durP2;ratioP2;P2;SDS_P1;SDS_P2;PMS_P1;PMS_P2;Temp;Humidity;BMP_temperature;BMP_pressure;BME280_temperature;BME280_humidity;BME280_pressure;Samples;Min_cycle;Max_cycle;Signal;HPM_P1;HPM_P2
2023/06/18 00:00:13;;;;;;;21.70;9.93;;;;;;;;;;791181;174;919678;-61
2023/06/18 00:02:39;;;;;;;14.97;9.60;;;;;;;;;;793352;174;857247;-68
2023/06/18 00:05:05;;;;;;;15.88;10.70;;;;;;;;;;791898;175;818126;-62
2023/06/18 00:07:30;;;;;;;19.20;9.90;;;;;;;;;;796714;177;919638;-67
2023/06/18 00:09:57;;;;;;;20.87;9.50;;;;;;;;;;789681;175;919156;-66
2023/06/18 00:12:22;;;;;;;20.77;9.88;;;;;;;;;;790827;176;943154;-67
2023/06/18 00:14:48;;;;;;;11.07;8.40;;;;;;;;;;798772;174;817245;-61
2023/06/18 00:17:15;;;;;;;15.00;8.80;;;;;;;;;;791498;175;912352;-63
2023/06/18 00:19:40;;;;;;;17.43;9.37;;;;;;;;;;791044;174;867304;-68
2023/06/18 00:22:06;;;;;;;13.73;9.47;;;;;;;;;;793520;174;886172;-61
2023/06/18 00:24:31;;;;;;;17.00;9.83;;;;;;;;;;790999;175;917504;-67
2023/06/18 00:26:57;;;;;;;14.00;8.80;;;;;;;;;;791849;174;912315;-67
2023/06/18 00:29:23;;;;;;;16.23;8.70;;;;;;;;;;791310;174;919338;-67
2023/06/18 00:31:49;;;;;;;20.87;8.47;;;;;;;;;;796210;174;895057;-62
2023/06/18 00:34:17;;;;;;;17.27;8.82;;;;;;;;;;791898;175;816858;-61
2023/06/18 00:36:43;;;;;;;12.63;8.23;;;;;;;;;;791591;174;918695;-64
2023/06/18 00:39:07;;;;;;;24.93;9.93;;;;;;;;;;795812;174;1021542;-61
2023/06/18 00:41:32;;;;;;;17.65;8.48;;;;;;;;;;792502;174;919097;-67
2023/06/18 00:43:58;;;;;;;10.27;8.97;;;;;;;;;;790841;175;916798;-67
2023/06/18 00:46:25;;;;;;;15.10;9.27;;;;;;;;;;792572;175;918353;-66
2023/06/18 00:48:51;;;;;;;20.63;9.90;;;;;;;;;;792641;177;919167;-61
2023/06/18 00:51:16;;;;;;;13.47;8.60;;;;;;;;;;793476;175;921805;-61
2023/06/18 00:53:42;;;;;;;15.57;9.40;;;;;;;;;;791025;177;919587;-67
2023/06/18 00:56:09;;;;;;;23.57;9.20;;;;;;;;;;797480;176;816322;-67
2023/06/18 00:58:36;;;;;;;14.00;8.37;;;;;;;;;;787525;174;919267;-61
2023/06/18 01:01:00;;;;;;;15.17;8.70;;;;;;;;;;791696;174;920563;-66
2023/06/18 01:03:26;;;;;;;14.57;8.83;;;;;;;;;;796967;175;919479;-61
2023/06/18 01:05:51;;;;;;;15.43;9.40;;;;;;;;;;790060;174;919147;-61
2023/06/18 01:08:17;;;;;;;19.80;9.30;;;;;;;;;;791241;175;896684;-67
2023/06/18 01:10:43;;;;;;;25.00;10.07;;;;;;;;;;796092;175;888865;-61
2023/06/18 01:13:10;;;;;;;15.47;9.80;;;;;;;;;;792347;175;814014;-67
2023/06/18 01:15:48;;;;;;;16.97;9.47;;;;;;;;;;788927;175;1021385;-68
2023/06/18 01:18:14;;;;;;;13.18;9.65;;;;;;;;;;751062;182;918282;-78
2023/06/18 01:20:41;;;;;;;21.00;9.40;;;;;;;;;;751601;182;918164;-78
2023/06/18 01:23:09;;;;;;;21.20;10.07;;;;;;;;;;755223;183;919398;-78
2023/06/18 01:25:33;;;;;;;21.07;9.43;;;;;;;;;;735743;186;930471;-78
2023/06/18 01:28:00;;;;;;;18.43;10.60;;;;;;;;;;736098;184;908797;-78
2023/06/18 01:30:25;;;;;;;15.57;10.70;;;;;;;;;;750571;187;910559;-78
2023/06/18 01:32:54;;;;;;;17.23;10.10;;;;;;;;;;732018;187;978036;-78
2023/06/18 01:35:16;;;;;;;13.50;8.90;;;;;;;;;;735430;187;1013416;-77
2023/06/18 01:37:58;;;;;;;16.50;8.60;;;;;;;;;;742597;187;950994;-77
2023/06/18 01:40:39;;;;;;;14.40;9.20;;;;;;;;;;758093;183;693616;-77
2023/06/18 01:43:06;;;;;;;9.53;8.33;;;;;;;;;;760493;184;663681;-78
2023/06/18 01:45:32;;;;;;;23.57;9.60;;;;;;;;;;758330;184;631260;-78
2023/06/18 01:47:58;;;;;;;14.27;8.53;;;;;;;;;;743087;188;633673;-77
2023/06/18 01:50:24;;;;;;;23.03;9.70;;;;;;;;;;732122;191;651585;-78
2023/06/18 01:52:50;;;;;;;15.70;9.20;;;;;;;;;;739873;187;687681;-77
2023/06/18 01:55:17;;;;;;;20.25;9.95;;;;;;;;;;738849;187;627323;-77
2023/06/18 01:57:42;;;;;;;15.83;8.80;;;;;;;;;;740914;187;740232;-78
2023/06/18 02:00:08;;;;;;;16.90;8.80;;;;;;;;;;732932;191;714264;-78
2023/06/18 02:02:34;;;;;;;18.77;9.60;;;;;;;;;;742981;187;643688;-78
2023/06/18 02:05:00;;;;;;;31.30;8.80;;;;;;;;;;743534;187;831514;-78
2023/06/18 02:07:26;;;;;;;19.70;8.57;;;;;;;;;;732460;191;638766;-78
2023/06/18 02:09:51;;;;;;;20.17;9.00;;;;;;;;;;741950;189;642387;-77
2023/06/18 02:12:17;;;;;;;23.83;8.00;;;;;;;;;;741107;187;633536;-78
2023/06/18 02:14:43;;;;;;;16.63;9.37;;;;;;;;;;731471;191;652294;-78
2023/06/18 02:17:10;;;;;;;24.17;9.47;;;;;;;;;;739206;188;648672;-77
2023/06/18 02:19:35;;;;;;;19.67;8.97;;;;;;;;;;739406;189;627771;-76
2023/06/18 02:22:01;;;;;;;15.13;8.73;;;;;;;;;;740946;188;691281;-77
2023/06/18 02:24:27;;;;;;;18.07;9.47;;;;;;;;;;728361;192;658056;-78
2023/06/18 02:26:52;;;;;;;12.90;7.90;;;;;;;;;;736474;188;977155;-78
2023/06/18 02:29:18;;;;;;;13.20;8.77;;;;;;;;;;735270;188;1020148;-78
2023/06/18 02:31:44;;;;;;;13.43;8.87;;;;;;;;;;747131;188;807437;-77
2023/06/18 02:34:10;;;;;;;19.33;9.87;;;;;;;;;;727767;189;919316;-78
2023/06/18 02:36:38;;;;;;;16.07;9.13;;;;;;;;;;747401;186;929033;-78
2023/06/18 02:39:02;;;;;;;15.20;8.90;;;;;;;;;;744765;187;915108;-78
2023/06/18 02:41:28;;;;;;;25.40;9.73;;;;;;;;;;757522;184;1018978;-77
2023/06/18 02:43:54;;;;;;;18.70;8.90;;;;;;;;;;751780;184;918176;-78
2023/06/18 02:46:19;;;;;;;15.60;9.70;;;;;;;;;;737080;188;922806;-78
2023/06/18 02:48:45;;;;;;;18.87;9.27;;;;;;;;;;726262;188;886005;-78
2023/06/18 02:51:11;;;;;;;18.13;9.80;;;;;;;;;;731870;189;916254;-77
2023/06/18 02:53:37;;;;;;;14.05;10.27;;;;;;;;;;748876;184;1221842;-78
2023/06/18 02:56:03;;;;;;;15.55;8.13;;;;;;;;;;757060;185;837356;-78
2023/06/18 02:58:29;;;;;;;12.13;8.87;;;;;;;;;;738023;187;983121;-77
2023/06/18 03:00:55;;;;;;;13.70;9.95;;;;;;;;;;737387;189;1124401;-78
2023/06/18 03:03:21;;;;;;;14.20;10.27;;;;;;;;;;759888;185;925327;-77
2023/06/18 03:05:47;;;;;;;11.90;8.60;;;;;;;;;;738283;187;916774;-77
2023/06/18 03:08:12;;;;;;;9.50;7.60;;;;;;;;;;739748;187;940126;-77
2023/06/18 03:10:38;;;;;;;13.70;8.70;;;;;;;;;;726190;192;918906;-77
2023/06/18 03:13:04;;;;;;;15.17;10.80;;;;;;;;;;740511;187;1024652;-78
2023/06/18 03:15:30;;;;;;;17.20;9.00;;;;;;;;;;739584;187;986655;-77
2023/06/18 03:17:56;;;;;;;14.70;9.80;;;;;;;;;;748103;184;918399;-78
2023/06/18 03:20:23;;;;;;;14.50;9.40;;;;;;;;;;761112;183;922422;-77
2023/06/18 03:22:47;;;;;;;15.03;11.43;;;;;;;;;;738188;188;1018347;-78
2023/06/18 03:25:13;;;;;;;14.43;9.77;;;;;;;;;;759008;184;854385;-79
2023/06/18 03:27:39;;;;;;;17.77;8.83;;;;;;;;;;749235;185;711599;-77
2023/06/18 03:30:06;;;;;;;16.02;8.77;;;;;;;;;;759407;184;917876;-78
2023/06/18 03:32:32;;;;;;;10.47;8.03;;;;;;;;;;739313;188;883883;-78
2023/06/18 03:34:57;;;;;;;12.17;8.70;;;;;;;;;;729889;191;870320;-78
2023/06/18 03:37:23;;;;;;;19.30;9.70;;;;;;;;;;742028;188;914964;-77
2023/06/18 03:39:49;;;;;;;11.17;8.00;;;;;;;;;;736911;188;896499;-78
2023/06/18 03:42:15;;;;;;;11.30;8.40;;;;;;;;;;739923;188;860483;-78
2023/06/18 03:44:41;;;;;;;17.07;8.63;;;;;;;;;;727403;191;929013;-78
2023/06/18 03:47:07;;;;;;;18.27;7.23;;;;;;;;;;736429;188;886050;-77
2023/06/18 03:49:33;;;;;;;12.30;7.75;;;;;;;;;;735303;188;923617;-77
2023/06/18 03:51:58;;;;;;;10.70;8.87;;;;;;;;;;733549;190;917574;-77
2023/06/18 03:54:26;;;;;;;10.00;8.38;;;;;;;;;;739654;187;893331;-77
2023/06/18 03:56:50;;;;;;;8.30;6.57;;;;;;;;;;743576;187;920381;-77
2023/06/18 03:59:16;;;;;;;6.70;5.57;;;;;;;;;;728924;192;914497;-77
2023/06/18 04:01:42;;;;;;;9.90;6.77;;;;;;;;;;741516;187;902586;-76
2023/06/18 04:04:08;;;;;;;8.57;6.10;;;;;;;;;;741699;188;898950;-77
2023/06/18 04:06:34;;;;;;;7.97;6.22;;;;;;;;;;737655;188;995906;-77
2023/06/18 04:09:00;;;;;;;6.33;5.40;;;;;;;;;;748913;186;912549;-77
2023/06/18 04:11:27;;;;;;;8.43;5.80;;;;;;;;;;752378;184;914473;-77
2023/06/18 04:13:51;;;;;;;10.30;5.73;;;;;;;;;;737790;188;921668;-77
2023/06/18 04:16:17;;;;;;;6.70;5.37;;;;;;;;;;727196;192;919215;-77
2023/06/18 04:18:43;;;;;;;6.00;5.30;;;;;;;;;;738923;189;869039;-77
2023/06/18 04:21:09;;;;;;;6.70;5.37;;;;;;;;;;738163;188;822780;-77
2023/06/18 04:23:35;;;;;;;6.93;6.13;;;;;;;;;;730868;191;921691;-77
2023/06/18 04:26:00;;;;;;;6.77;5.87;;;;;;;;;;736091;189;919177;-77
2023/06/18 04:28:26;;;;;;;7.60;5.63;;;;;;;;;;736943;187;912665;-76
2023/06/18 04:30:52;;;;;;;11.77;6.60;;;;;;;;;;728986;191;916777;-77
2023/06/18 04:33:18;;;;;;;9.23;7.90;;;;;;;;;;740344;188;915472;-77
2023/06/18 04:35:45;;;;;;;14.20;8.73;;;;;;;;;;739997;188;919286;-77
2023/06/18 04:38:11;;;;;;;11.03;8.33;;;;;;;;;;739601;188;917511;-77
2023/06/18 04:40:36;;;;;;;10.13;7.77;;;;;;;;;;730514;191;905834;-77
2023/06/18 04:43:01;;;;;;;8.97;8.07;;;;;;;;;;734025;188;935574;-77
2023/06/18 04:45:27;;;;;;;12.55;8.02;;;;;;;;;;739789;188;918592;-77
2023/06/18 04:47:54;;;;;;;8.33;7.27;;;;;;;;;;726423;191;908508;-77
2023/06/18 04:50:20;;;;;;;10.37;8.70;;;;;;;;;;739415;188;1159492;-78
2023/06/18 04:52:45;;;;;;;13.73;9.93;;;;;;;;;;744604;186;914827;-76
2023/06/18 04:55:11;;;;;;;10.17;7.47;;;;;;;;;;754457;185;874729;-77
2023/06/18 04:57:37;;;;;;;13.63;7.90;;;;;;;;;;749750;185;915675;-77
2023/06/18 05:00:04;;;;;;;8.70;6.23;;;;;;;;;;739745;188;916016;-77
2023/06/18 05:02:29;;;;;;;9.30;7.10;;;;;;;;;;738473;188;1194429;-77
2023/06/18 05:04:54;;;;;;;23.33;8.43;;;;;;;;;;754883;184;978889;-77
2023/06/18 05:07:20;;;;;;;11.03;8.67;;;;;;;;;;740564;187;1018708;-77
2023/06/18 05:09:46;;;;;;;9.50;7.80;;;;;;;;;;751217;185;911753;-77
2023/06/18 05:12:12;;;;;;;10.43;8.70;;;;;;;;;;754746;185;1018107;-77
2023/06/18 05:14:38;;;;;;;11.63;10.43;;;;;;;;;;747573;185;1048645;-78
2023/06/18 05:17:04;;;;;;;14.13;11.00;;;;;;;;;;749097;185;949020;-77
2023/06/18 05:19:30;;;;;;;12.83;11.00;;;;;;;;;;735429;191;915698;-85
2023/06/18 05:21:57;;;;;;;13.63;9.40;;;;;;;;;;748963;187;626319;-86
2023/06/18 05:24:21;;;;;;;11.70;10.33;;;;;;;;;;745116;187;662788;-86
2023/06/18 05:26:47;;;;;;;12.43;10.37;;;;;;;;;;741714;187;643828;-85
2023/06/18 05:29:13;;;;;;;15.33;12.13;;;;;;;;;;749651;185;640547;-85
2023/06/18 05:31:39;;;;;;;14.07;11.37;;;;;;;;;;755989;184;655511;-83
2023/06/18 05:34:05;;;;;;;12.40;10.53;;;;;;;;;;754559;184;633268;-81
2023/06/18 05:36:31;;;;;;;13.80;10.57;;;;;;;;;;759123;184;773877;-82
2023/06/18 05:38:59;;;;;;;15.33;9.97;;;;;;;;;;731022;187;965149;-83
2023/06/18 05:41:22;;;;;;;12.35;10.48;;;;;;;;;;739179;188;935960;-82
2023/06/18 05:43:48;;;;;;;12.63;9.67;;;;;;;;;;731886;191;882858;-82
2023/06/18 05:46:14;;;;;;;11.83;9.60;;;;;;;;;;740642;188;998124;-83
2023/06/18 05:48:40;;;;;;;12.27;9.57;;;;;;;;;;742149;188;666252;-82
2023/06/18 05:51:06;;;;;;;15.73;10.27;;;;;;;;;;731762;191;627357;-83
2023/06/18 05:53:32;;;;;;;10.80;9.40;;;;;;;;;;746561;188;634962;-83
2023/06/18 05:55:58;;;;;;;11.02;9.77;;;;;;;;;;744844;188;814294;-82
2023/06/18 05:58:24;;;;;;;13.30;9.23;;;;;;;;;;738413;188;649011;-82
2023/06/18 06:00:50;;;;;;;10.17;8.70;;;;;;;;;;734844;191;916653;-84
2023/06/18 06:03:16;;;;;;;11.57;9.50;;;;;;;;;;741593;188;983527;-83
2023/06/18 06:05:42;;;;;;;11.75;9.73;;;;;;;;;;733797;188;914079;-83
2023/06/18 06:08:08;;;;;;;11.00;9.77;;;;;;;;;;727561;191;883585;-83
2023/06/18 06:10:33;;;;;;;12.27;10.30;;;;;;;;;;739497;188;912452;-83
2023/06/18 06:12:59;;;;;;;11.00;9.43;;;;;;;;;;738853;188;1030931;-82
2023/06/18 06:15:25;;;;;;;12.03;9.10;;;;;;;;;;743772;187;647690;-82
2023/06/18 06:17:51;;;;;;;11.53;9.90;;;;;;;;;;730057;190;623981;-83
2023/06/18 06:20:17;;;;;;;11.73;9.77;;;;;;;;;;744463;187;646794;-83
2023/06/18 06:22:43;;;;;;;10.03;8.70;;;;;;;;;;743054;187;665565;-82
2023/06/18 06:25:09;;;;;;;11.60;9.77;;;;;;;;;;733962;191;654847;-84
2023/06/18 06:27:35;;;;;;;12.80;10.20;;;;;;;;;;740473;187;623619;-83
2023/06/18 06:30:01;;;;;;;13.60;9.97;;;;;;;;;;740964;187;675217;-83
2023/06/18 06:32:27;;;;;;;13.83;9.70;;;;;;;;;;763813;184;687766;-83
2023/06/18 06:34:52;;;;;;;13.70;10.13;;;;;;;;;;741200;188;665852;-83
2023/06/18 06:37:18;;;;;;;11.43;10.23;;;;;;;;;;741386;189;647176;-83
2023/06/18 06:39:44;;;;;;;11.50;9.63;;;;;;;;;;730456;191;629352;-84
2023/06/18 06:42:10;;;;;;;13.37;10.60;;;;;;;;;;745120;187;649743;-84
2023/06/18 06:44:36;;;;;;;11.77;9.60;;;;;;;;;;743344;187;661434;-84
2023/06/18 06:47:01;;;;;;;12.30;9.80;;;;;;;;;;729973;191;637434;-81
2023/06/18 06:49:27;;;;;;;13.50;10.63;;;;;;;;;;746355;187;644552;-84
2023/06/18 06:51:54;;;;;;;11.03;9.50;;;;;;;;;;746431;186;699226;-82
2023/06/18 06:54:20;;;;;;;17.33;11.03;;;;;;;;;;758109;183;627496;-82
2023/06/18 06:56:46;;;;;;;14.00;11.57;;;;;;;;;;765120;183;627783;-84
2023/06/18 06:59:12;;;;;;;14.93;10.27;;;;;;;;;;743162;188;792284;-82
2023/06/18 07:01:39;;;;;;;12.67;10.90;;;;;;;;;;739916;189;657661;-82
2023/06/18 07:04:04;;;;;;;12.50;8.77;;;;;;;;;;728389;191;855420;-84
2023/06/18 07:06:30;;;;;;;11.50;9.07;;;;;;;;;;738976;188;910007;-83
2023/06/18 07:08:55;;;;;;;11.23;9.80;;;;;;;;;;739111;188;892656;-82
2023/06/18 07:11:21;;;;;;;13.13;10.53;;;;;;;;;;721878;192;1026180;-81
2023/06/18 07:13:47;;;;;;;12.20;10.73;;;;;;;;;;740390;189;1017616;-83
2023/06/18 07:16:13;;;;;;;10.53;9.43;;;;;;;;;;750718;183;914139;-83
2023/06/18 07:18:39;;;;;;;12.75;10.18;;;;;;;;;;735971;190;998863;-83
2023/06/18 07:21:05;;;;;;;11.87;9.43;;;;;;;;;;755574;184;910998;-83
2023/06/18 07:23:31;;;;;;;13.13;10.33;;;;;;;;;;738190;188;914653;-82
2023/06/18 07:25:57;;;;;;;12.10;10.13;;;;;;;;;;736057;188;893499;-83
2023/06/18 07:28:23;;;;;;;10.53;8.73;;;;;;;;;;730231;190;1017563;-83
2023/06/18 07:30:49;;;;;;;13.87;9.10;;;;;;;;;;756023;183;814023;-81
2023/06/18 07:33:14;;;;;;;9.35;8.07;;;;;;;;;;734089;188;1145458;-83
2023/06/18 07:35:41;;;;;;;17.87;9.02;;;;;;;;;;756330;184;788030;-82
2023/06/18 07:38:07;;;;;;;10.47;9.23;;;;;;;;;;740263;188;796824;-83
2023/06/18 07:40:33;;;;;;;11.97;8.83;;;;;;;;;;750208;184;912156;-83
2023/06/18 07:42:58;;;;;;;9.88;8.85;;;;;;;;;;738517;187;944292;-82
2023/06/18 07:45:24;;;;;;;9.63;8.60;;;;;;;;;;731498;191;815216;-82
2023/06/18 07:47:50;;;;;;;8.97;8.03;;;;;;;;;;738821;187;1019955;-83
2023/06/18 07:50:16;;;;;;;10.30;8.70;;;;;;;;;;749289;185;1062435;-83
2023/06/18 07:52:42;;;;;;;11.27;9.23;;;;;;;;;;746166;187;844149;-82
2023/06/18 07:55:08;;;;;;;9.23;7.23;;;;;;;;;;751363;185;636999;-83
2023/06/18 07:57:34;;;;;;;10.10;9.10;;;;;;;;;;740549;188;626753;-84
2023/06/18 08:00:00;;;;;;;9.77;7.70;;;;;;;;;;733686;192;624246;-83
2023/06/18 08:02:26;;;;;;;9.17;7.60;;;;;;;;;;740691;187;630534;-85
2023/06/18 08:04:51;;;;;;;11.67;7.70;;;;;;;;;;743625;188;643377;-84
2023/06/18 08:07:17;;;;;;;8.83;7.40;;;;;;;;;;754974;185;626282;-84
2023/06/18 08:09:43;;;;;;;10.53;8.30;;;;;;;;;;761373;184;633222;-83
2023/06/18 08:12:11;;;;;;;9.50;7.50;;;;;;;;;;742646;189;647296;-83
2023/06/18 08:14:35;;;;;;;9.17;7.47;;;;;;;;;;740252;188;632957;-82
2023/06/18 08:17:01;;;;;;;10.40;6.73;;;;;;;;;;763818;183;667673;-85
2023/06/18 08:19:27;;;;;;;13.00;6.80;;;;;;;;;;745879;188;656131;-84
2023/06/18 08:21:53;;;;;;;8.57;7.70;;;;;;;;;;744003;189;637927;-83
2023/06/18 08:24:18;;;;;;;9.17;6.80;;;;;;;;;;736485;192;640615;-84
2023/06/18 08:26:44;;;;;;;7.87;7.07;;;;;;;;;;755176;184;621154;-83
2023/06/18 08:29:10;;;;;;;9.07;6.27;;;;;;;;;;750572;186;631258;-83
2023/06/18 08:31:40;;;;;;;7.67;6.57;;;;;;;;;;760034;181;26527;-84
2023/06/18 08:34:02;;;;;;;9.03;6.33;;;;;;;;;;750482;183;666980;-83
2023/06/18 08:36:28;;;;;;;8.40;6.10;;;;;;;;;;733979;188;656720;-83
2023/06/18 08:38:54;;;;;;;7.27;6.50;;;;;;;;;;743381;188;635539;-82
2023/06/18 08:41:19;;;;;;;9.60;6.83;;;;;;;;;;735076;192;626907;-83
2023/06/18 08:43:45;;;;;;;7.97;6.77;;;;;;;;;;742260;188;642710;-82
2023/06/18 08:46:11;;;;;;;7.70;6.00;;;;;;;;;;744601;187;706839;-85
2023/06/18 08:48:37;;;;;;;6.93;5.83;;;;;;;;;;732239;191;1036651;-82
2023/06/18 08:51:03;;;;;;;7.60;6.40;;;;;;;;;;735914;188;1016166;-83
2023/06/18 08:53:33;;;;;;;7.63;6.77;;;;;;;;;;737767;188;1112052;-83
2023/06/18 08:56:00;;;;;;;7.10;5.80;;;;;;;;;;751809;184;914631;-84
2023/06/18 08:58:25;;;;;;;10.07;6.30;;;;;;;;;;762269;183;916116;-83
2023/06/18 09:00:51;;;;;;;9.10;6.77;;;;;;;;;;742154;189;917262;-84
2023/06/18 09:03:17;;;;;;;7.07;5.67;;;;;;;;;;741211;187;913779;-85
2023/06/18 09:05:43;;;;;;;6.93;5.87;;;;;;;;;;734864;191;1013315;-84
2023/06/18 09:08:09;;;;;;;6.90;5.57;;;;;;;;;;729532;191;927267;-83
2023/06/18 09:10:35;;;;;;;7.53;6.27;;;;;;;;;;739817;188;928602;-84
2023/06/18 09:13:01;;;;;;;8.20;5.00;;;;;;;;;;722947;194;915506;-85
2023/06/18 09:15:26;;;;;;;7.03;6.03;;;;;;;;;;738057;187;904840;-84
2023/06/18 09:17:52;;;;;;;7.20;5.90;;;;;;;;;;746727;187;632268;-84
2023/06/18 09:20:18;;;;;;;8.57;6.20;;;;;;;;;;739521;188;671891;-83
2023/06/18 09:22:45;;;;;;;10.40;5.93;;;;;;;;;;761981;184;630849;-85
2023/06/18 09:25:10;;;;;;;7.93;5.87;;;;;;;;;;746021;188;616837;-85
2023/06/18 09:27:38;;;;;;;7.30;6.03;;;;;;;;;;740060;188;651311;-85
2023/06/18 09:30:03;;;;;;;6.87;5.53;;;;;;;;;;733183;192;644091;-84
2023/06/18 09:32:28;;;;;;;7.30;6.13;;;;;;;;;;746726;188;629517;-85
2023/06/18 09:34:54;;;;;;;5.80;5.20;;;;;;;;;;745790;189;630307;-84
2023/06/18 09:37:19;;;;;;;6.57;5.60;;;;;;;;;;731373;191;625875;-85
2023/06/18 09:39:46;;;;;;;7.00;6.30;;;;;;;;;;734888;187;638336;-85
2023/06/18 09:42:13;;;;;;;10.07;6.10;;;;;;;;;;741849;188;633686;-85
2023/06/18 09:44:37;;;;;;;7.00;6.30;;;;;;;;;;738672;188;834756;-85
2023/06/18 09:47:11;;;;;;;9.50;6.67;;;;;;;;;;737571;191;630028;-85
2023/06/18 09:49:30;;;;;;;8.13;6.67;;;;;;;;;;738066;188;634792;-84
2023/06/18 09:51:55;;;;;;;7.70;5.93;;;;;;;;;;740036;187;631842;-84
2023/06/18 09:54:21;;;;;;;9.50;5.90;;;;;;;;;;746325;187;621333;-84
2023/06/18 09:56:53;;;;;;;6.80;5.67;;;;;;;;;;740636;188;647160;-85
2023/06/18 09:59:19;;;;;;;6.30;5.70;;;;;;;;;;744146;187;644203;-85
2023/06/18 10:01:45;;;;;;;5.67;5.07;;;;;;;;;;742983;187;649296;-84
2023/06/18 10:04:11;;;;;;;5.10;4.47;;;;;;;;;;733210;191;639938;-86
2023/06/18 10:06:37;;;;;;;5.70;4.73;;;;;;;;;;748005;187;626620;-84
2023/06/18 10:09:03;;;;;;;5.40;4.87;;;;;;;;;;745769;187;661292;-86
2023/06/18 10:11:29;;;;;;;7.03;5.33;;;;;;;;;;733754;191;812699;-84
2023/06/18 10:13:56;;;;;;;5.60;4.80;;;;;;;;;;742478;187;673329;-87
2023/06/18 10:16:22;;;;;;;6.27;5.40;;;;;;;;;;754207;184;646264;-84
2023/06/18 10:18:48;;;;;;;5.50;4.60;;;;;;;;;;759144;183;630767;-85
2023/06/18 10:21:14;;;;;;;4.70;3.87;;;;;;;;;;740371;187;719585;-85
2023/06/18 10:23:40;;;;;;;6.17;4.73;;;;;;;;;;743231;187;626360;-85
2023/06/18 10:26:06;;;;;;;6.37;5.60;;;;;;;;;;743234;187;646404;-84
2023/06/18 10:28:32;;;;;;;5.60;5.00;;;;;;;;;;732596;191;631254;-85
2023/06/18 10:30:58;;;;;;;5.30;4.23;;;;;;;;;;742524;188;639506;-84
2023/06/18 10:33:24;;;;;;;4.57;4.10;;;;;;;;;;744669;188;644561;-85
2023/06/18 10:35:49;;;;;;;6.30;5.03;;;;;;;;;;735558;191;624717;-83
2023/06/18 10:38:15;;;;;;;4.23;3.60;;;;;;;;;;745391;188;625732;-86
2023/06/18 10:40:42;;;;;;;6.90;4.60;;;;;;;;;;744139;188;651796;-85
2023/06/18 10:43:07;;;;;;;4.43;3.60;;;;;;;;;;731112;191;621669;-85
2023/06/18 10:45:33;;;;;;;4.70;3.87;;;;;;;;;;737456;188;931347;-86
2023/06/18 10:48:05;;;;;;;4.47;3.30;;;;;;;;;;742078;188;643157;-84
2023/06/18 10:50:30;;;;;;;6.43;3.63;;;;;;;;;;742670;188;726778;-87
2023/06/18 10:52:56;;;;;;;4.73;4.17;;;;;;;;;;735642;191;640984;-84
2023/06/18 10:55:29;;;;;;;5.20;4.50;;;;;;;;;;739428;189;642580;-85
2023/06/18 10:58:01;;;;;;;5.17;4.17;;;;;;;;;;743440;188;653141;-84
2023/06/18 11:00:29;;;;;;;6.87;3.80;;;;;;;;;;739722;188;634059;-85
2023/06/18 11:03:07;;;;;;;3.93;3.20;;;;;;;;;;732207;191;626740;-83
2023/06/18 11:05:47;;;;;;;4.43;3.87;;;;;;;;;;741693;188;645601;-85
2023/06/18 11:08:13;;;;;;;4.40;4.00;;;;;;;;;;756326;183;675030;-84
2023/06/18 11:10:39;;;;;;;5.97;5.10;;;;;;;;;;752544;183;634223;-86
2023/06/18 11:13:05;;;;;;;5.27;4.77;;;;;;;;;;743046;188;634635;-86
2023/06/18 11:15:31;;;;;;;6.73;4.47;;;;;;;;;;729924;191;668190;-85
2023/06/18 11:18:01;;;;;;;5.80;4.40;;;;;;;;;;742219;187;641259;-84
2023/06/18 11:20:23;;;;;;;5.97;4.77;;;;;;;;;;743837;187;659060;-87
2023/06/18 11:22:56;;;;;;;5.43;4.63;;;;;;;;;;744468;187;643478;-85
2023/06/18 11:25:22;;;;;;;6.23;4.90;;;;;;;;;;732217;188;679859;-85
2023/06/18 11:27:49;;;;;;;5.27;4.67;;;;;;;;;;739436;189;719402;-86
2023/06/18 11:30:15;;;;;;;4.20;3.60;;;;;;;;;;742487;187;635949;-86
2023/06/18 11:32:40;;;;;;;4.62;3.83;;;;;;;;;;733387;191;707530;-86
2023/06/18 11:35:07;;;;;;;5.47;4.87;;;;;;;;;;744411;187;714004;-87
2023/06/18 11:37:32;;;;;;;5.60;3.90;;;;;;;;;;740770;189;815676;-86
2023/06/18 11:39:58;;;;;;;5.87;4.53;;;;;;;;;;741309;188;699512;-87
2023/06/18 11:42:25;;;;;;;5.50;4.90;;;;;;;;;;728748;192;825685;-85
2023/06/18 11:44:51;;;;;;;5.47;4.57;;;;;;;;;;751880;183;805961;-86
2023/06/18 11:47:17;;;;;;;5.53;4.57;;;;;;;;;;759039;183;734894;-86
2023/06/18 11:49:43;;;;;;;10.63;5.70;;;;;;;;;;761461;183;631045;-86
2023/06/18 11:52:09;;;;;;;5.77;5.20;;;;;;;;;;738868;188;729549;-88
2023/06/18 11:54:35;;;;;;;7.67;5.20;;;;;;;;;;741158;188;827200;-86
2023/06/18 11:57:01;;;;;;;7.13;5.17;;;;;;;;;;732577;191;711369;-87
2023/06/18 11:59:27;;;;;;;6.33;5.70;;;;;;;;;;740533;188;661848;-87
2023/06/18 12:01:53;;;;;;;5.97;5.00;;;;;;;;;;740946;188;638622;-87
2023/06/18 12:04:19;;;;;;;9.30;6.37;;;;;;;;;;740646;188;640195;-86
2023/06/18 12:06:45;;;;;;;6.20;5.60;;;;;;;;;;731344;191;651045;-87
2023/06/18 12:09:11;;;;;;;5.53;4.90;;;;;;;;;;742829;188;668577;-86
2023/06/18 12:11:37;;;;;;;6.27;5.67;;;;;;;;;;742807;188;645528;-86
2023/06/18 12:14:03;;;;;;;5.90;5.30;;;;;;;;;;734891;190;656574;-87
2023/06/18 12:16:29;;;;;;;5.47;4.93;;;;;;;;;;743187;187;684336;-85
2023/06/18 12:18:58;;;;;;;6.33;5.63;;;;;;;;;;743707;187;649641;-86
2023/06/18 12:21:21;;;;;;;7.20;5.13;;;;;;;;;;730407;191;614078;-87
2023/06/18 12:23:47;;;;;;;6.33;5.60;;;;;;;;;;743901;187;623933;-85
2023/06/18 12:26:13;;;;;;;8.83;7.10;;;;;;;;;;744008;185;624912;-84
2023/06/18 12:28:38;;;;;;;6.50;5.80;;;;;;;;;;744328;187;634445;-85
2023/06/18 12:31:06;;;;;;;5.80;5.17;;;;;;;;;;729872;191;614181;-88
2023/06/18 12:33:32;;;;;;;6.27;5.30;;;;;;;;;;739440;188;633070;-88
2023/06/18 12:35:58;;;;;;;6.70;5.23;;;;;;;;;;742343;184;651407;-88
2023/06/18 12:38:24;;;;;;;6.20;5.03;;;;;;;;;;761969;184;678025;-86
2023/06/18 12:40:50;;;;;;;7.30;5.20;;;;;;;;;;744415;187;658716;-88
2023/06/18 12:43:16;;;;;;;5.78;5.18;;;;;;;;;;740573;187;675751;-87
2023/06/18 12:45:42;;;;;;;6.20;5.07;;;;;;;;;;755665;185;636192;-88
2023/06/18 12:48:11;;;;;;;6.47;5.07;;;;;;;;;;743509;184;642209;-87
2023/06/18 12:50:39;;;;;;;5.30;4.60;;;;;;;;;;741228;185;806376;-88
2023/06/18 12:53:11;;;;;;;5.13;4.63;;;;;;;;;;740693;184;637678;-88
2023/06/18 12:55:37;;;;;;;6.03;5.43;;;;;;;;;;757298;186;637725;-88
2023/06/18 12:58:02;;;;;;;7.93;5.10;;;;;;;;;;740581;188;669433;-88
2023/06/18 13:00:28;;;;;;;5.30;3.87;;;;;;;;;;737320;189;708578;-87
2023/06/18 13:02:54;;;;;;;7.53;5.40;;;;;;;;;;728965;189;654070;-88
2023/06/18 13:05:20;;;;;;;7.00;5.40;;;;;;;;;;730457;191;944566;-88
2023/06/18 13:07:49;;;;;;;8.70;5.80;;;;;;;;;;739577;188;705244;-87
2023/06/18 13:10:15;;;;;;;5.60;5.10;;;;;;;;;;740068;188;649770;-87
2023/06/18 13:12:40;;;;;;;5.30;4.80;;;;;;;;;;732815;191;634327;-86
2023/06/18 13:15:07;;;;;;;5.77;4.00;;;;;;;;;;743496;188;634683;-86
2023/06/18 13:17:32;;;;;;;5.90;4.63;;;;;;;;;;739514;188;714194;-88
2023/06/18 13:19:58;;;;;;;6.47;4.70;;;;;;;;;;731183;191;686152;-85
2023/06/18 13:22:24;;;;;;;4.50;3.83;;;;;;;;;;740356;188;768590;-86
2023/06/18 13:24:52;;;;;;;6.93;4.67;;;;;;;;;;730198;191;620745;-87
2023/06/18 13:27:16;;;;;;;7.40;4.93;;;;;;;;;;741125;188;631423;-86
2023/06/18 13:29:42;;;;;;;7.90;4.63;;;;;;;;;;754778;183;645428;-87
2023/06/18 13:32:09;;;;;;;5.27;4.63;;;;;;;;;;756051;183;633818;-88
2023/06/18 13:34:34;;;;;;;5.97;4.80;;;;;;;;;;741235;187;828309;-87
2023/06/18 13:36:59;;;;;;;5.20;4.47;;;;;;;;;;736540;191;681083;-86
2023/06/18 13:39:25;;;;;;;5.00;4.50;;;;;;;;;;742546;187;634202;-87
2023/06/18 13:41:53;;;;;;;5.20;4.70;;;;;;;;;;743650;187;683791;-87
2023/06/18 13:44:17;;;;;;;5.13;4.00;;;;;;;;;;734029;191;649941;-85
2023/06/18 13:46:43;;;;;;;5.50;4.93;;;;;;;;;;744593;187;643220;-87
2023/06/18 13:49:09;;;;;;;5.30;4.00;;;;;;;;;;742113;187;654110;-87
2023/06/18 13:51:35;;;;;;;4.63;4.13;;;;;;;;;;740209;187;777974;-86
2023/06/18 13:54:01;;;;;;;6.17;4.67;;;;;;;;;;729806;191;623630;-87
2023/06/18 13:56:29;;;;;;;4.80;4.17;;;;;;;;;;741192;189;672309;-88
2023/06/18 13:58:52;;;;;;;4.80;3.87;;;;;;;;;;737814;187;682660;-87
2023/06/18 14:01:18;;;;;;;5.27;4.40;;;;;;;;;;727079;191;680417;-85
2023/06/18 14:03:44;;;;;;;4.90;4.40;;;;;;;;;;741756;188;640698;-87
2023/06/18 14:06:10;;;;;;;4.30;3.90;;;;;;;;;;742299;188;659603;-85
2023/06/18 14:08:36;;;;;;;4.70;4.20;;;;;;;;;;732051;191;623816;-87
2023/06/18 14:11:02;;;;;;;4.70;4.20;;;;;;;;;;740097;188;818600;-87
2023/06/18 14:13:28;;;;;;;5.17;3.80;;;;;;;;;;742659;188;634802;-86